createdAt,value
2022-12-29T00:00:11.419Z,102161.74
2022-12-29T00:03:02.232Z,102160.90
2022-12-29T00:05:30.334Z,102152.91
2022-12-29T00:08:00.333Z,102152.33
2022-12-29T00:10:27.769Z,102152.23
2022-12-29T00:13:13.937Z,102146.60
2022-12-29T00:15:43.778Z,102139.22
2022-12-29T00:18:11.167Z,102139.86
2022-12-29T00:21:02.253Z,102142.11
2022-12-29T00:23:48.472Z,102143.70
2022-12-29T00:26:36.128Z,102150.40
2022-12-29T00:29:22.218Z,102162.35
2022-12-29T00:32:08.208Z,102161.29
2022-12-29T00:34:54.522Z,102153.73
2022-12-29T00:37:42.132Z,102154.08
2022-12-29T00:40:28.519Z,102153.27
2022-12-29T00:43:17.532Z,102146.57
2022-12-29T00:45:45.755Z,102143.89
2022-12-29T00:48:13.098Z,102141.33
2022-12-29T00:50:41.568Z,102142.79
2022-12-29T00:53:09.046Z,102142.67
2022-12-29T00:55:39.503Z,102138.45
2022-12-29T00:58:07.063Z,102134.45
2022-12-29T01:00:34.872Z,102135.42
2022-12-29T01:03:03.055Z,102131.25
2022-12-29T01:05:30.702Z,102123.00
2022-12-29T01:07:58.231Z,102121.21
2022-12-29T01:10:25.803Z,102110.41
2022-12-29T01:12:53.996Z,102109.45
2022-12-29T01:15:21.771Z,102108.50
2022-12-29T01:17:49.873Z,102110.42
2022-12-29T01:20:17.504Z,102108.09
2022-12-29T01:22:46.425Z,102108.48
2022-12-29T01:25:14.132Z,102103.27
2022-12-29T01:27:41.872Z,102103.33
2022-12-29T01:30:10.071Z,102099.92
2022-12-29T01:32:37.381Z,102094.62
2022-12-29T01:35:05.365Z,102097.52
2022-12-29T01:37:35.746Z,102091.81
2022-12-29T01:40:03.729Z,102097.45
2022-12-29T01:42:32.857Z,102093.32
2022-12-29T01:45:14.160Z,102094.04
2022-12-29T01:47:50.037Z,102091.79
2022-12-29T01:50:30.880Z,102090.54
2022-12-29T01:53:22.009Z,102084.23
2022-12-29T01:55:53.996Z,102079.16
2022-12-29T01:58:25.632Z,102079.26
2022-12-29T02:00:53.211Z,102078.20
2022-12-29T02:03:21.593Z,102081.89
2022-12-29T02:05:57.395Z,102081.29
2022-12-29T02:08:28.015Z,102084.22
2022-12-29T02:10:57.768Z,102083.05
2022-12-29T02:13:26.913Z,102062.77
2022-12-29T02:16:20.446Z,102069.05
2022-12-29T02:19:55.792Z,102076.42
2022-12-29T02:23:19.665Z,102079.49
2022-12-29T02:26:10.750Z,102079.89
2022-12-29T02:29:03.353Z,102074.17
2022-12-29T02:31:53.488Z,102074.95
2022-12-29T02:34:52.573Z,102067.52
2022-12-29T02:37:32.337Z,102068.44
2022-12-29T02:40:28.912Z,102072.41
2022-12-29T02:43:06.819Z,102065.15
2022-12-29T02:45:56.287Z,102060.46
2022-12-29T02:48:43.202Z,102056.98
2022-12-29T02:51:24.824Z,102057.44
2022-12-29T02:54:45.002Z,102052.90
2022-12-29T02:57:23.644Z,102050.52
2022-12-29T03:00:14.742Z,102052.59
2022-12-29T03:03:20.364Z,102049.55
2022-12-29T03:06:17.137Z,102046.19
2022-12-29T03:08:58.693Z,102040.81
2022-12-29T03:11:53.364Z,102040.36
2022-12-29T03:15:25.792Z,102046.52
2022-12-29T03:18:20.537Z,102043.50
2022-12-29T03:21:03.591Z,102045.29
2022-12-29T03:23:33.187Z,102046.22
2022-12-29T03:26:04.026Z,102042.20
2022-12-29T03:28:39.248Z,102041.75
2022-12-29T03:31:09.181Z,102039.55
2022-12-29T03:33:38.303Z,102043.12
2022-12-29T03:36:11.185Z,102045.54
2022-12-29T03:38:49.284Z,102038.09
2022-12-29T03:41:23.443Z,102040.14
2022-12-29T03:43:50.967Z,102038.10
2022-12-29T03:46:19.099Z,102026.36
2022-12-29T03:48:47.886Z,102025.17
2022-12-29T03:51:15.623Z,102021.95
2022-12-29T03:53:43.847Z,102019.61
2022-12-29T03:56:11.500Z,102026.61
2022-12-29T03:58:38.968Z,102025.97
2022-12-29T04:01:12.446Z,102024.39
2022-12-29T04:03:39.991Z,102023.20
2022-12-29T04:06:08.608Z,102019.15
2022-12-29T04:08:44.897Z,102023.77
2022-12-29T04:11:12.360Z,102021.74
2022-12-29T04:13:42.026Z,102020.41
2022-12-29T04:16:12.222Z,102015.13
2022-12-29T04:18:40.201Z,102015.66
2022-12-29T04:21:08.015Z,102015.86
2022-12-29T04:23:39.332Z,102018.26
2022-12-29T04:26:09.838Z,102023.58
2022-12-29T04:28:47.348Z,102027.83
2022-12-29T04:31:36.478Z,102028.33
2022-12-29T04:34:04.064Z,102026.95
2022-12-29T04:36:32.530Z,102025.61
2022-12-29T04:39:00.884Z,102028.69
2022-12-29T04:41:28.703Z,102028.52
2022-12-29T04:43:57.041Z,102028.21
2022-12-29T04:46:50.680Z,102032.83
2022-12-29T04:49:30.171Z,102036.58
2022-12-29T04:52:44.421Z,102038.10
2022-12-29T04:55:14.516Z,102035.53
2022-12-29T04:57:44.009Z,102038.75
2022-12-29T05:00:15.592Z,102043.02
2022-12-29T05:02:43.387Z,102042.02
2022-12-29T05:05:11.562Z,102042.03
2022-12-29T05:07:43.139Z,102050.36
2022-12-29T05:10:11.560Z,102051.54
2022-12-29T05:12:39.536Z,102048.77
2022-12-29T05:15:14.583Z,102050.45
2022-12-29T05:17:42.929Z,102056.58
2022-12-29T05:20:11.138Z,102054.37
2022-12-29T05:22:39.061Z,102056.75
2022-12-29T05:25:07.740Z,102061.63
2022-12-29T05:27:46.745Z,102065.35
2022-12-29T05:31:08.089Z,102062.47
2022-12-29T05:33:36.421Z,102062.30
2022-12-29T05:36:09.498Z,102064.67
2022-12-29T05:38:39.346Z,102061.95
2022-12-29T05:41:07.094Z,102063.45
2022-12-29T05:43:53.408Z,102062.95
2022-12-29T05:47:02.206Z,102062.97
2022-12-29T05:50:16.867Z,102065.87
2022-12-29T05:53:38.807Z,102069.76
2022-12-29T05:56:07.821Z,102071.10
2022-12-29T05:58:36.017Z,102074.15
2022-12-29T06:01:03.942Z,102070.76
2022-12-29T06:03:31.991Z,102070.75
2022-12-29T06:06:00.195Z,102072.61
2022-12-29T06:08:28.978Z,102068.34
2022-12-29T06:10:57.268Z,102068.66
2022-12-29T06:13:26.055Z,102072.07
2022-12-29T06:15:54.715Z,102066.80
2022-12-29T06:18:22.493Z,102076.84
2022-12-29T06:20:50.795Z,102074.60
2022-12-29T06:23:19.930Z,102075.23
2022-12-29T06:25:52.579Z,102069.70
2022-12-29T06:28:20.754Z,102065.92
2022-12-29T06:30:49.809Z,102061.48
2022-12-29T06:33:19.263Z,102063.49
2022-12-29T06:35:49.084Z,102066.02
2022-12-29T06:38:18.158Z,102065.27
2022-12-29T06:40:46.587Z,102065.70
2022-12-29T06:43:34.524Z,102068.52
2022-12-29T06:46:10.892Z,102062.90
2022-12-29T06:48:46.876Z,102060.50
2022-12-29T06:51:16.927Z,102068.39
2022-12-29T06:53:46.346Z,102065.71
2022-12-29T06:56:16.043Z,102071.21
2022-12-29T06:58:50.455Z,102070.94
2022-12-29T07:01:18.457Z,102068.33
2022-12-29T07:03:47.757Z,102071.48
2022-12-29T07:06:15.804Z,102072.05
2022-12-29T07:08:44.170Z,102076.02
2022-12-29T07:11:13.191Z,102076.05
2022-12-29T07:13:56.480Z,102076.12
2022-12-29T07:16:30.147Z,102077.38
2022-12-29T07:19:00.660Z,102075.64
2022-12-29T07:21:34.189Z,102080.20
2022-12-29T07:24:03.455Z,102080.48
2022-12-29T07:26:36.274Z,102084.14
2022-12-29T07:29:14.721Z,102084.55
2022-12-29T07:31:44.486Z,102087.02
2022-12-29T07:34:13.545Z,102085.07
2022-12-29T07:36:42.769Z,102080.37
2022-12-29T07:39:12.801Z,102074.98
2022-12-29T07:41:40.854Z,102074.35
2022-12-29T07:44:18.962Z,102072.84
2022-12-29T07:47:22.896Z,102079.02
2022-12-29T07:49:52.294Z,102079.08
2022-12-29T07:55:54.909Z,102077.92
2022-12-29T07:58:27.790Z,102076.73
2022-12-29T08:04:47.104Z,102072.98
2022-12-29T08:07:15.683Z,102068.59
2022-12-29T08:09:53.640Z,102068.58
2022-12-29T08:12:27.698Z,102058.27
2022-12-29T08:14:58.128Z,102061.76
2022-12-29T08:17:46.949Z,102058.02
2022-12-29T08:20:17.662Z,102055.36
2022-12-29T08:22:51.187Z,102057.73
2022-12-29T08:25:21.539Z,102056.15
2022-12-29T08:27:52.611Z,102051.37
2022-12-29T08:30:20.454Z,102046.42
2022-12-29T08:32:52.445Z,102042.20
2022-12-29T08:35:20.170Z,102038.13
2022-12-29T08:37:48.633Z,102038.63
2022-12-29T08:40:21.507Z,102015.98
2022-12-29T08:42:55.739Z,102024.02
2022-12-29T08:45:23.560Z,102022.09
2022-12-29T08:48:00.934Z,102016.75
2022-12-29T08:50:29.051Z,102017.63
2022-12-29T08:52:57.514Z,102019.70
2022-12-29T08:55:25.121Z,102021.19
2022-12-29T08:57:53.360Z,102021.29
2022-12-29T09:00:24.111Z,102024.10
2022-12-29T09:02:52.974Z,102015.73
2022-12-29T09:05:22.270Z,102013.19
2022-12-29T09:07:50.146Z,102010.29
2022-12-29T09:10:20.271Z,102011.48
2022-12-29T09:12:53.097Z,102006.13
2022-12-29T09:15:26.045Z,101995.12
2022-12-29T09:17:58.499Z,101990.32
2022-12-29T09:20:40.166Z,101990.46
2022-12-29T09:23:14.828Z,101984.27
2022-12-29T09:25:45.353Z,101981.13
2022-12-29T09:28:13.500Z,101977.59
2022-12-29T09:30:42.953Z,101978.15
2022-12-29T09:33:15.903Z,101967.88
2022-12-29T09:35:46.601Z,101972.11
2022-12-29T09:38:18.061Z,101970.63
2022-12-29T09:41:00.484Z,101974.21
2022-12-29T09:43:44.176Z,101976.04
2022-12-29T09:46:31.038Z,101979.45
2022-12-29T09:49:19.608Z,101972.45
2022-12-29T09:51:53.595Z,101966.66
2022-12-29T09:54:41.411Z,101965.25
2022-12-29T09:57:43.283Z,101960.39
2022-12-29T10:00:23.447Z,101955.87
2022-12-29T10:03:07.300Z,101952.78
2022-12-29T10:05:57.738Z,101948.30
2022-12-29T10:09:02.373Z,101948.78
2022-12-29T10:12:19.696Z,101941.34
2022-12-29T10:15:01.425Z,101937.38
2022-12-29T10:17:50.034Z,101938.63
2022-12-29T10:20:42.326Z,101936.84
2022-12-29T10:23:48.976Z,101932.98
2022-12-29T10:26:29.771Z,101925.96
2022-12-29T10:29:23.127Z,101920.46
2022-12-29T10:32:03.968Z,101913.27
2022-12-29T10:34:42.899Z,101912.45
2022-12-29T10:37:57.836Z,101907.89
2022-12-29T10:40:45.639Z,101898.52
2022-12-29T10:43:29.473Z,101895.52
2022-12-29T10:46:07.027Z,101895.29
2022-12-29T10:48:37.964Z,101894.75
2022-12-29T10:51:09.128Z,101890.59
2022-12-29T10:53:47.914Z,101885.23
2022-12-29T10:56:45.771Z,101878.98
2022-12-29T10:59:28.673Z,101881.39
2022-12-29T11:02:13.349Z,101879.48
2022-12-29T11:05:23.356Z,101874.39
2022-12-29T11:07:58.174Z,101875.77
2022-12-29T11:10:43.199Z,101882.24
2022-12-29T11:13:18.667Z,101884.17
2022-12-29T11:15:51.065Z,101884.08
2022-12-29T11:18:38.734Z,101881.79
2022-12-29T11:21:41.129Z,101881.70
2022-12-29T11:24:30.213Z,101878.54
2022-12-29T11:27:26.297Z,101875.16
2022-12-29T11:29:55.342Z,101869.54
2022-12-29T11:32:30.669Z,101866.36
2022-12-29T11:35:01.568Z,101856.98
2022-12-29T11:37:43.573Z,101855.16
2022-12-29T11:40:20.654Z,101855.84
2022-12-29T11:43:05.213Z,101853.01
2022-12-29T11:45:36.352Z,101853.02
2022-12-29T11:48:10.642Z,101854.39
2022-12-29T11:50:43.510Z,101851.52
2022-12-29T11:53:27.107Z,101847.99
2022-12-29T11:56:02.135Z,101838.16
2022-12-29T11:58:37.256Z,101831.02
2022-12-29T12:01:45.764Z,101820.08
2022-12-29T12:04:23.232Z,101813.83
2022-12-29T12:07:22.691Z,101815.46
2022-12-29T12:10:08.090Z,101810.80
2022-12-29T12:13:07.175Z,101806.53
2022-12-29T12:15:47.418Z,101803.44
2022-12-29T12:18:56.367Z,101794.98
2022-12-29T12:21:33.591Z,101798.33
2022-12-29T12:24:46.325Z,101797.41
2022-12-29T12:40:41.249Z,101784.25
2022-12-29T12:44:04.970Z,101780.83
2022-12-29T12:46:48.188Z,101774.08
2022-12-29T12:50:10.269Z,101771.59
2022-12-29T12:53:14.680Z,101770.73
2022-12-29T12:56:15.617Z,101773.91
2022-12-29T12:59:09.986Z,101773.34
2022-12-29T13:01:55.144Z,101777.23
2022-12-29T13:05:05.332Z,101773.80
2022-12-29T13:08:05.963Z,101777.09
2022-12-29T13:11:02.525Z,101783.66
2022-12-29T13:13:56.001Z,101780.95
2022-12-29T13:17:28.058Z,101779.60
2022-12-29T13:20:12.372Z,101784.60
2022-12-29T13:23:25.174Z,101793.06
2022-12-29T13:26:25.591Z,101794.90
2022-12-29T13:29:28.499Z,101799.22
2022-12-29T13:35:55.932Z,101802.76
2022-12-29T13:38:38.967Z,101798.58
2022-12-29T13:41:27.140Z,101794.44
2022-12-29T13:43:56.932Z,101803.21
2022-12-29T13:46:40.783Z,101809.89
2022-12-29T13:49:24.033Z,101808.55
2022-12-29T13:52:28.356Z,101803.59
2022-12-29T13:55:34.242Z,101799.80
2022-12-29T13:58:19.739Z,101798.97
2022-12-29T14:01:02.827Z,101796.67
2022-12-29T14:04:01.909Z,101792.77
2022-12-29T14:06:45.436Z,101781.84
2022-12-29T14:09:53.266Z,101788.36
2022-12-29T14:12:44.275Z,101788.11
2022-12-29T14:15:13.951Z,101788.88
2022-12-29T14:18:23.146Z,101790.09
2022-12-29T14:21:03.107Z,101792.64
2022-12-29T14:23:45.814Z,101791.55
2022-12-29T14:26:36.686Z,101787.84
2022-12-29T14:29:42.798Z,101784.23
2022-12-29T14:32:22.713Z,101782.95
2022-12-29T14:35:00.735Z,101782.59
2022-12-29T14:37:40.275Z,101780.86
2022-12-29T14:40:29.831Z,101779.21
2022-12-29T14:43:00.130Z,101784.89
2022-12-29T14:45:34.493Z,101784.17
2022-12-29T14:48:48.134Z,101783.55
2022-12-29T14:54:45.248Z,101779.36
2022-12-29T14:57:42.005Z,101778.74
2022-12-29T15:00:23.657Z,101773.48
2022-12-29T15:03:34.314Z,101783.91
2022-12-29T15:06:12.971Z,101793.59
2022-12-29T15:09:16.859Z,101792.70
2022-12-29T15:12:06.204Z,101791.90
2022-12-29T15:14:49.564Z,101787.08
2022-12-29T15:17:35.985Z,101789.34
2022-12-29T15:26:55.124Z,101788.94
2022-12-29T15:29:35.439Z,101790.80
2022-12-29T15:32:17.473Z,101789.87
2022-12-29T15:37:53.084Z,101781.68
2022-12-29T15:40:31.465Z,101783.92
2022-12-29T15:43:19.594Z,101789.31
2022-12-29T15:45:55.912Z,101789.23
2022-12-29T15:48:39.878Z,101786.41
2022-12-29T15:54:39.508Z,101781.40
2022-12-29T15:57:43.401Z,101782.91
2022-12-29T16:00:44.327Z,101781.55
2022-12-29T16:06:46.619Z,101773.13
2022-12-29T16:09:56.350Z,101772.65
2022-12-29T16:12:33.364Z,101770.10
2022-12-29T16:15:10.242Z,101769.64
2022-12-29T16:17:54.574Z,101762.23
2022-12-29T16:20:39.847Z,101761.01
2022-12-29T16:23:24.444Z,101760.33
2022-12-29T16:25:56.360Z,101762.08
2022-12-29T16:28:43.481Z,101769.11
2022-12-29T16:31:26.682Z,101773.73
2022-12-29T16:33:57.001Z,101774.33
2022-12-29T16:39:42.910Z,101779.80
2022-12-29T16:45:51.819Z,101773.90
2022-12-29T16:48:47.203Z,101773.54
2022-12-29T16:51:46.018Z,101773.97
2022-12-29T16:54:52.103Z,101772.17
2022-12-29T16:57:34.021Z,101773.50
2022-12-29T17:00:09.509Z,101767.04
2022-12-29T17:02:46.792Z,101763.17
2022-12-29T17:05:18.703Z,101764.26
2022-12-29T17:07:48.369Z,101762.07
2022-12-29T17:10:18.320Z,101764.66
2022-12-29T17:12:52.263Z,101765.16
2022-12-29T17:15:35.459Z,101764.77
2022-12-29T17:18:13.427Z,101762.73
2022-12-29T17:21:14.347Z,101760.48
2022-12-29T17:27:05.378Z,101771.20
2022-12-29T17:29:39.226Z,101770.98
2022-12-29T17:32:14.285Z,101767.05
2022-12-29T17:34:46.024Z,101770.83
2022-12-29T17:37:36.192Z,101769.41
2022-12-29T17:40:11.657Z,101767.34
2022-12-29T17:42:45.864Z,101771.05
2022-12-29T17:45:25.639Z,101765.53
2022-12-29T17:47:55.742Z,101760.52
2022-12-29T17:50:27.211Z,101761.55
2022-12-29T17:53:05.237Z,101760.70
2022-12-29T17:55:38.015Z,101760.38
2022-12-29T17:58:29.624Z,101762.37
2022-12-29T18:01:01.451Z,101766.92
2022-12-29T18:03:40.903Z,101761.40
2022-12-29T18:06:12.482Z,101763.26
2022-12-29T18:08:42.220Z,101762.86
2022-12-29T18:11:24.697Z,101765.33
2022-12-29T18:13:54.659Z,101770.48
2022-12-29T18:16:23.985Z,101768.84
2022-12-29T18:18:53.043Z,101770.75
2022-12-29T18:21:24.493Z,101766.52
2022-12-29T18:23:53.657Z,101762.52
2022-12-29T18:26:32.424Z,101767.60
2022-12-29T18:29:01.525Z,101766.23
2022-12-29T18:31:33.391Z,101766.80
2022-12-29T18:34:13.759Z,101765.10
2022-12-29T18:36:42.702Z,101763.77
2022-12-29T18:39:13.380Z,101762.75
2022-12-29T18:41:42.245Z,101762.77
2022-12-29T18:44:15.626Z,101762.95
2022-12-29T18:46:44.486Z,101764.61
2022-12-29T18:49:14.997Z,101765.46
2022-12-29T18:51:43.720Z,101766.27
2022-12-29T18:54:28.428Z,101763.92
2022-12-29T18:56:58.079Z,101764.65
2022-12-29T18:59:27.037Z,101763.91
2022-12-29T19:01:56.697Z,101767.80
2022-12-29T19:04:25.839Z,101773.09
2022-12-29T19:06:57.084Z,101773.67
2022-12-29T19:09:27.717Z,101774.51
2022-12-29T19:11:56.801Z,101771.17
2022-12-29T19:14:25.636Z,101771.38
2022-12-29T19:16:54.673Z,101773.59
2022-12-29T19:19:23.499Z,101774.48
2022-12-29T19:21:56.654Z,101773.23
2022-12-29T19:24:26.192Z,101771.05
2022-12-29T19:26:55.347Z,101771.83
2022-12-29T19:29:24.417Z,101775.12
2022-12-29T19:31:53.245Z,101775.19
2022-12-29T19:34:22.301Z,101774.39
2022-12-29T19:36:51.069Z,101775.63
2022-12-29T19:39:20.027Z,101774.60
2022-12-29T19:41:49.634Z,101774.15
2022-12-29T19:44:19.951Z,101781.50
2022-12-29T19:46:48.679Z,101780.51
2022-12-29T19:49:18.027Z,101785.37
2022-12-29T19:51:49.671Z,101783.56
2022-12-29T19:54:18.573Z,101781.05
2022-12-29T19:56:47.291Z,101781.56
2022-12-29T19:59:16.326Z,101781.20
2022-12-29T20:01:45.589Z,101778.99
2022-12-29T20:04:15.062Z,101784.42
2022-12-29T20:06:43.872Z,101783.98
2022-12-29T20:09:13.056Z,101783.17
2022-12-29T20:11:42.887Z,101781.04
2022-12-29T20:14:15.012Z,101783.64
2022-12-29T20:17:02.778Z,101788.20
2022-12-29T20:19:50.016Z,101786.67
2022-12-29T20:22:19.039Z,101784.59
2022-12-29T20:24:50.178Z,101790.25
2022-12-29T20:27:19.916Z,101792.48
2022-12-29T20:29:50.237Z,101787.27
2022-12-29T20:32:23.083Z,101784.63
2022-12-29T20:34:56.015Z,101785.36
2022-12-29T20:37:24.965Z,101786.20
2022-12-29T20:39:55.997Z,101784.75
2022-12-29T20:42:25.057Z,101790.37
2022-12-29T20:44:54.135Z,101791.58
2022-12-29T20:47:23.309Z,101789.08
2022-12-29T20:49:52.502Z,101781.40
2022-12-29T20:52:24.605Z,101779.15
2022-12-29T20:54:53.789Z,101781.28
2022-12-29T20:57:22.905Z,101780.29
2022-12-29T20:59:52.030Z,101777.77
2022-12-29T21:02:23.224Z,101774.72
2022-12-29T21:07:42.393Z,101778.54
2022-12-29T21:10:15.813Z,101773.33
2022-12-29T21:12:49.339Z,101774.10
2022-12-29T21:15:18.710Z,101771.61
2022-12-29T21:17:47.583Z,101768.94
2022-12-29T21:20:30.254Z,101764.36
2022-12-29T21:23:01.324Z,101763.54
2022-12-29T21:25:37.491Z,101766.31
2022-12-29T21:28:09.139Z,101768.06
2022-12-29T21:30:38.908Z,101766.94
2022-12-29T21:33:08.258Z,101762.02
2022-12-29T21:35:40.732Z,101760.85
2022-12-29T21:38:10.032Z,101764.75
2022-12-29T21:40:40.688Z,101760.81
2022-12-29T21:43:11.423Z,101759.12
2022-12-29T21:45:40.452Z,101758.11
2022-12-29T21:48:30.487Z,101759.38
2022-12-29T21:51:30.981Z,101763.33
2022-12-29T21:54:20.859Z,101759.66
2022-12-29T21:56:49.794Z,101759.17
2022-12-29T21:59:37.889Z,101760.20
2022-12-29T22:02:55.824Z,101759.48
2022-12-29T22:05:43.349Z,101755.02
2022-12-29T22:08:30.955Z,101754.85
2022-12-29T22:11:18.437Z,101754.91
2022-12-29T22:13:47.107Z,101757.86
2022-12-29T22:16:16.432Z,101759.65
2022-12-29T22:18:45.304Z,101755.91
2022-12-29T22:21:14.017Z,101750.42
2022-12-29T22:23:43.252Z,101744.10
2022-12-29T22:26:14.396Z,101742.02
2022-12-29T22:28:46.423Z,101741.84
2022-12-29T22:31:27.442Z,101740.31
2022-12-29T22:34:01.728Z,101731.52
2022-12-29T22:36:31.189Z,101727.05
2022-12-29T22:39:00.225Z,101722.76
2022-12-29T22:41:29.016Z,101719.27
2022-12-29T22:43:57.729Z,101716.39
2022-12-29T22:46:26.584Z,101719.86
2022-12-29T22:48:57.917Z,101720.73
2022-12-29T22:51:26.634Z,101716.80
2022-12-29T22:53:55.600Z,101716.16
2022-12-29T22:56:24.540Z,101710.25
2022-12-29T22:58:53.493Z,101703.02
2022-12-29T23:01:23.417Z,101699.02
2022-12-29T23:03:52.902Z,101704.15
2022-12-29T23:06:21.777Z,101701.44
2022-12-29T23:08:50.603Z,101706.70
2022-12-29T23:11:23.046Z,101703.13
2022-12-29T23:13:51.937Z,101699.73
2022-12-29T23:16:21.811Z,101702.69
2022-12-29T23:18:51.121Z,101695.08
2022-12-29T23:21:20.859Z,101692.61
2022-12-29T23:24:04.289Z,101690.65
2022-12-29T23:26:45.171Z,101694.61
2022-12-29T23:29:18.383Z,101692.89
2022-12-29T23:31:48.360Z,101687.94
2022-12-29T23:34:17.733Z,101684.63
2022-12-29T23:36:46.981Z,101684.42
2022-12-29T23:39:23.556Z,101681.20
2022-12-29T23:41:52.816Z,101677.66
2022-12-29T23:44:21.656Z,101679.23
2022-12-29T23:46:50.629Z,101680.26
2022-12-29T23:49:22.389Z,101677.36
2022-12-29T23:51:51.452Z,101676.15
2022-12-29T23:54:25.793Z,101679.88
2022-12-29T23:56:59.530Z,101678.98
2022-12-29T23:59:30.404Z,101674.36
